NEW EXCHEQUER-LK MCCLURE (EXC)

Elevation: 879' · MERCED R basin · Operator: Merced Irrigation District

Provisional data, subject to change.
Query executed Friday at 1:54:05   clock

Select a sensor type for a plot of data.
Note: Reservoir Flows are daily averages.

Earlier

Date RES ELE    STORAGE    RES CHG    TOC STO    ABV TOC    OUTFLOW    INFLOW    PPT INC    TEMP MN    TEMP MX    TEMP AV   
 FEET   AF   AF   AF   AF   CFS   CFS   INCHES   DEG F   DEG F   DEG F  
06/26/2014 706.48 279900 -- 1003200 -723300 1449 119 0.00 -- -- --
06/27/2014 705.88 278290 -- 1003400 -- 954 143 0.00 -- -- --
06/28/2014 705.53 277380 -- 1003700 -- 666 207 0.00 -- -- --
06/29/2014 704.85 275610 -- 1003900 -- 1041 150 0.00 -- -- --
06/30/2014 704.15 273790 -- 1004100 -730310 1065 147 0.00 -- -- --
07/01/2014 703.52 272150 -- 1004300 -732150 956 130 0.00 -- -- --
07/02/2014 702.64 269860 -- 1004300 -734440 1182 28 0.00 -- -- --
07/03/2014 701.84 267780 -- 1003600 -735820 1130 81 0.00 -- -- --
07/04/2014 701.10 265860 -- 1002800 -736940 1038 68 0.00 -- -- --
07/05/2014 700.30 263780 -- 1002000 -738220 1117 68 0.00 -- -- --
07/06/2014 699.40 261500 -- 1001200 -739700 1209 60 0.00 -- -- --
07/07/2014 698.57 259430 -- 1000500 -741070 1154 107 0.00 -- -- --
07/08/2014 697.74 257350 -- 999610 -742260 1039 0 0.00 -- -- --
07/09/2014 696.93 255330 -- 998820 -743490 1078 57 0.00 -- -- --
07/10/2014 696.11 253280 -- 998000 -744720 1074 40 0.00 -- -- --
07/11/2014 695.20 251000 -- 994720 -- 1187 39 0.00 -- -- --
07/12/2014 694.37 248930 -- 991490 -- 1115 69 0.00 -- -- --
07/13/2014 693.51 246820 -- 988240 -741420 1115 55 0.00 -- -- --
07/14/2014 692.54 244500 -- 984900 -740400 1157 0 0.00 -- -- --
07/15/2014 691.77 242650 -- 981650 -739000 983 51 0.00 -- -- --
07/16/2014 690.96 240700 -- 978500 -737800 1085 105 0.00 -- -- --
07/17/2014 689.92 238210 -- 975180 -736970 1270 12 0.00 -- -- --
07/18/2014 689.18 236430 -- 972080 -- 1022 127 0.00 -- -- --
07/19/2014 688.44 234660 -- 969060 -- 1066 170 0.00 -- -- --
07/20/2014 687.74 233000 -- 967460 -734460 904 70 0.00 -- -- --
07/21/2014 686.82 230890 -- 972650 -741760 1215 148 0.00 -- -- --
07/22/2014 686.11 229250 -- 977850 -748600 990 166 0.00 -- -- --
07/23/2014 685.31 227410 -- 983040 -755630 1036 108 0.00 -- -- --
07/24/2014 -- -- -- -- -- -- -- -- -- -- --
07/25/2014 -- -- -- -- -- -- -- -- -- -- --

Later | Latest

Warning! This data is preliminary and subject to revision.

Download Data Now Download Data Now | Show EXC Map | Plot EXC Data | 1 Month EXC Data | Real-Time EXC Data | EXC Info